Time;durP1;ratioP1;P1;durP2;ratioP2;P2;SDS_P1;SDS_P2;PMS_P1;PMS_P2;Temp;Humidity;BMP_temperature;BMP_pressure;BME280_temperature;BME280_humidity;BME280_pressure;Samples;Min_cycle;Max_cycle;Signal;HPM_P1;HPM_P2
2023/07/11 00:00:49;;;;;;;6.28;3.90;;;;;;;21.17;52.70;96633.38;5052879;28;20128;-66
2023/07/11 00:03:17;;;;;;;5.15;4.20;;;;;;;21.06;53.36;96634.22;5052824;28;20079;-66
2023/07/11 00:05:44;;;;;;;5.93;4.75;;;;;;;20.95;53.90;96624.44;5052863;28;20091;-67
2023/07/11 00:08:11;;;;;;;5.50;4.45;;;;;;;20.94;54.00;96627.22;5054286;28;20106;-66
2023/07/11 00:10:42;;;;;;;6.85;4.50;;;;;;;20.87;54.72;96624.16;5056811;28;20532;-67
2023/07/11 00:13:11;;;;;;;5.50;4.90;;;;;;;20.77;54.62;96629.34;5056957;28;20457;-66
2023/07/11 00:15:38;;;;;;;11.10;4.55;;;;;;;20.68;55.94;96633.56;5056661;28;20049;-66
2023/07/11 00:18:06;;;;;;;9.57;5.03;;;;;;;20.53;56.04;96635.59;5056683;28;20482;-67
2023/07/11 00:20:33;;;;;;;6.45;4.43;;;;;;;20.45;57.30;96630.91;5056684;28;20048;-66
2023/07/11 00:23:00;;;;;;;8.32;4.55;;;;;;;20.27;57.16;96625.19;5056596;28;20103;-66
2023/07/11 00:25:27;;;;;;;4.50;3.97;;;;;;;20.14;57.79;96627.09;5056547;28;20041;-66
2023/07/11 00:27:56;;;;;;;8.88;4.60;;;;;;;20.08;57.93;96615.97;5056493;28;20450;-67
2023/07/11 00:30:23;;;;;;;5.32;4.82;;;;;;;20.03;57.92;96615.47;5056426;28;20495;-66
2023/07/11 00:32:50;;;;;;;6.85;4.47;;;;;;;19.97;58.51;96612.38;5056322;28;20093;-67
2023/07/11 00:35:18;;;;;;;9.48;4.63;;;;;;;20.00;58.09;96612.16;5056292;28;20486;-67
2023/07/11 00:37:45;;;;;;;7.47;4.82;;;;;;;20.10;56.79;96610.53;5056357;28;20045;-66
2023/07/11 00:40:13;;;;;;;6.47;5.10;;;;;;;20.25;56.34;96608.53;5056189;28;20053;-66
2023/07/11 00:42:42;;;;;;;5.38;4.85;;;;;;;20.44;55.08;96610.59;5056136;28;20083;-66
2023/07/11 00:45:42;;;;;;;5.57;4.97;;;;;;;20.63;54.65;96608.31;5056157;28;20060;-67
2023/07/11 00:48:11;;;;;;;9.35;4.95;;;;;;;20.84;54.28;96605.81;5055725;28;20056;-67
2023/07/11 00:50:39;;;;;;;5.03;4.50;;;;;;;21.00;53.78;96608.13;5055978;28;20052;-67
2023/07/11 00:53:07;;;;;;;6.07;4.75;;;;;;;21.15;53.29;96605.19;5056027;28;20048;-67
2023/07/11 00:55:34;;;;;;;9.70;4.63;;;;;;;21.17;54.40;96603.25;5056040;28;20053;-67
2023/07/11 00:58:02;;;;;;;8.05;4.70;;;;;;;21.24;52.95;96600.94;5055748;28;20056;-67
2023/07/11 01:00:29;;;;;;;7.03;5.05;;;;;;;21.30;52.74;96603.09;5055882;28;20052;-66
2023/07/11 01:02:57;;;;;;;9.15;4.88;;;;;;;21.44;52.30;96607.31;5055841;28;20056;-67
2023/07/11 01:05:25;;;;;;;6.80;4.82;;;;;;;21.53;52.35;96605.72;5055766;28;20091;-67
2023/07/11 01:07:52;;;;;;;7.80;4.25;;;;;;;21.61;51.97;96605.91;5055696;28;20401;-66
2023/07/11 01:10:19;;;;;;;6.32;4.70;;;;;;;21.65;51.74;96602.06;5055677;28;20074;-67
2023/07/11 01:12:48;;;;;;;9.25;4.05;;;;;;;21.66;51.72;96600.22;5055739;28;20051;-67
2023/07/11 01:15:16;;;;;;;5.35;4.60;;;;;;;21.68;51.42;96599.16;5055579;28;20387;-67
2023/07/11 01:17:43;;;;;;;15.75;4.95;;;;;;;21.74;51.61;96597.78;5055511;28;20077;-66
2023/07/11 01:20:12;;;;;;;7.97;4.75;;;;;;;21.77;51.56;96586.06;5055149;28;20128;-67
2023/07/11 01:22:41;;;;;;;6.15;5.25;;;;;;;21.86;50.86;96595.09;5055547;28;20552;-67
2023/07/11 01:25:11;;;;;;;9.65;5.05;;;;;;;21.90;51.74;96586.72;5055451;28;20100;-67
2023/07/11 01:27:40;;;;;;;14.02;4.50;;;;;;;21.94;50.97;96579.31;5055546;28;20103;-66
2023/07/11 01:30:09;;;;;;;6.13;4.50;;;;;;;21.98;51.13;96575.44;5055347;28;20096;-66
2023/07/11 01:32:37;;;;;;;7.30;4.43;;;;;;;21.98;50.89;96575.44;5055433;28;20045;-67
2023/07/11 01:35:05;;;;;;;12.50;4.95;;;;;;;22.02;50.73;96582.19;5055265;28;20364;-66
2023/07/11 01:37:32;;;;;;;11.23;4.97;;;;;;;22.06;50.99;96591.59;5055133;28;20091;-66
2023/07/11 01:40:01;;;;;;;4.88;4.30;;;;;;;22.13;50.32;96588.44;5055134;28;20132;-66
2023/07/11 01:42:28;;;;;;;7.30;4.72;;;;;;;22.11;50.84;96588.56;5055096;28;20048;-66
2023/07/11 01:44:55;;;;;;;8.38;4.72;;;;;;;22.12;51.71;96589.41;5054965;28;20056;-67
2023/07/11 01:47:23;;;;;;;5.80;4.80;;;;;;;22.13;51.09;96583.97;5055087;28;20098;-67
2023/07/11 01:49:50;;;;;;;4.85;4.35;;;;;;;22.13;50.24;96585.78;5054899;28;20449;-66
2023/07/11 01:52:20;;;;;;;9.07;4.88;;;;;;;22.16;50.75;96573.06;5054925;28;20127;-67
2023/07/11 01:54:47;;;;;;;7.47;4.87;;;;;;;22.20;50.01;96573.63;5054831;28;20077;-67
2023/07/11 01:57:16;;;;;;;7.32;4.78;;;;;;;22.24;50.09;96579.53;5054741;28;20290;-66
2023/07/11 01:59:43;;;;;;;9.65;5.22;;;;;;;22.20;50.62;96578.94;5054842;28;20041;-66
2023/07/11 02:02:11;;;;;;;7.53;4.88;;;;;;;22.22;49.88;96583.16;5054746;28;20044;-66
2023/07/11 02:04:39;;;;;;;5.80;4.90;;;;;;;22.24;50.48;96585.69;5054610;28;20076;-66
2023/07/11 02:07:07;;;;;;;13.38;5.13;;;;;;;22.26;49.92;96582.91;5054660;28;20052;-66
2023/07/11 02:09:35;;;;;;;7.05;4.95;;;;;;;22.29;49.80;96586.16;5054536;28;20122;-67
2023/07/11 02:12:03;;;;;;;6.00;4.55;;;;;;;22.31;50.27;96581.53;5054556;28;20044;-67
2023/07/11 02:14:36;;;;;;;9.38;4.53;;;;;;;22.28;50.65;96580.97;5054457;28;20041;-67
2023/07/11 02:17:04;;;;;;;9.13;5.00;;;;;;;22.25;49.68;96581.22;5054407;28;20053;-67
2023/07/11 02:19:32;;;;;;;10.82;4.72;;;;;;;22.27;49.82;96593.41;5054396;28;20049;-66
2023/07/11 02:21:59;;;;;;;9.60;5.05;;;;;;;22.26;49.90;96583.75;5054329;28;20049;-66
2023/07/11 02:24:27;;;;;;;6.10;5.18;;;;;;;22.21;49.58;96591.28;5054280;28;20051;-66
2023/07/11 02:26:54;;;;;;;7.70;5.35;;;;;;;22.25;48.83;96583.88;5054237;28;20049;-67
2023/07/11 02:29:21;;;;;;;7.40;4.93;;;;;;;22.24;49.30;96588.34;5054063;28;20080;-66
2023/07/11 02:31:49;;;;;;;10.65;5.38;;;;;;;22.28;49.45;96588.94;5053328;28;20045;-66
2023/07/11 02:34:16;;;;;;;13.35;5.45;;;;;;;22.29;49.20;96582.63;5054169;28;20131;-66
2023/07/11 02:36:43;;;;;;;9.57;4.60;;;;;;;22.29;48.61;96582.63;5054051;28;20045;-66
2023/07/11 02:39:10;;;;;;;9.05;5.15;;;;;;;22.32;49.45;96575.25;5054046;28;20037;-66
2023/07/11 02:41:38;;;;;;;8.90;4.78;;;;;;;22.35;49.09;96582.13;5053904;28;20076;-66
2023/07/11 02:44:05;;;;;;;7.72;4.75;;;;;;;22.39;49.10;96583.53;5053985;28;20487;-66
2023/07/11 02:46:33;;;;;;;12.95;5.95;;;;;;;22.40;48.61;96584.41;5053809;28;20487;-67
2023/07/11 02:49:01;;;;;;;6.20;4.78;;;;;;;22.39;49.26;96596.84;5053797;28;20049;-66
2023/07/11 02:51:29;;;;;;;12.75;4.82;;;;;;;22.34;49.51;96597.25;5053690;28;20514;-67
2023/07/11 02:53:57;;;;;;;9.52;5.30;;;;;;;22.36;49.06;96596.28;5053776;28;20059;-66
2023/07/11 02:56:24;;;;;;;5.32;4.40;;;;;;;22.28;50.49;96594.28;5053351;28;20045;-66
2023/07/11 02:58:52;;;;;;;7.80;5.10;;;;;;;22.22;50.18;96587.66;5053708;28;20045;-66
2023/07/11 03:01:19;;;;;;;9.50;5.00;;;;;;;22.16;50.10;96589.03;5053654;28;20045;-66
2023/07/11 03:03:47;;;;;;;5.30;4.13;;;;;;;22.14;50.23;96588.31;5053618;28;20075;-67
2023/07/11 03:06:18;;;;;;;8.07;4.70;;;;;;;22.07;51.06;96597.78;5053486;28;20449;-66
2023/07/11 03:08:45;;;;;;;7.35;5.35;;;;;;;22.00;51.45;96596.63;5053578;28;20094;-67
2023/07/11 03:11:12;;;;;;;8.63;4.70;;;;;;;21.92;51.11;96595.44;5053412;28;20103;-67
2023/07/11 03:13:39;;;;;;;8.07;4.50;;;;;;;21.86;51.13;96600.44;5053489;28;20049;-66
2023/07/11 03:16:07;;;;;;;7.75;4.70;;;;;;;21.86;51.19;96601.28;5053422;28;20078;-66
2023/07/11 03:18:34;;;;;;;5.85;4.45;;;;;;;21.89;50.37;96602.84;5053362;28;20490;-66
2023/07/11 03:21:03;;;;;;;12.77;5.90;;;;;;;21.92;51.04;96607.91;5053297;28;20068;-66
2023/07/11 03:23:31;;;;;;;7.03;4.75;;;;;;;21.98;51.24;96612.72;5053335;28;20080;-66
2023/07/11 03:25:59;;;;;;;8.27;4.65;;;;;;;22.02;50.73;96610.63;5053240;28;20149;-66
2023/07/11 03:28:28;;;;;;;5.45;4.50;;;;;;;22.04;51.67;96608.69;5053175;28;20510;-67
2023/07/11 03:30:55;;;;;;;6.05;5.20;;;;;;;22.03;53.75;96604.34;5053056;28;20055;-66
2023/07/11 03:33:22;;;;;;;6.38;5.30;;;;;;;21.96;54.80;96602.19;5053162;28;20045;-66
2023/07/11 03:35:51;;;;;;;9.00;5.25;;;;;;;21.83;54.83;96613.00;5053043;28;20406;-67
2023/07/11 03:38:20;;;;;;;6.22;5.22;;;;;;;21.78;55.54;96611.72;5053018;28;20049;-66
2023/07/11 03:40:48;;;;;;;6.60;5.15;;;;;;;21.74;56.43;96610.25;5053051;28;20047;-67
2023/07/11 03:43:19;;;;;;;6.78;4.85;;;;;;;21.79;56.77;96610.75;5052830;28;20499;-67
2023/07/11 03:45:47;;;;;;;5.43;4.90;;;;;;;21.81;57.54;96612.31;5052953;28;20056;-65
2023/07/11 03:48:15;;;;;;;7.78;5.13;;;;;;;21.83;57.10;96604.19;5052878;28;20084;-67
2023/07/11 03:50:43;;;;;;;12.27;5.40;;;;;;;21.77;56.93;96613.53;5052835;28;20099;-65
2023/07/11 03:53:11;;;;;;;12.43;5.80;;;;;;;21.69;57.98;96611.47;5052926;28;20056;-66
2023/07/11 03:55:38;;;;;;;6.13;4.88;;;;;;;21.60;58.46;96612.22;5052772;28;20044;-67
2023/07/11 03:58:07;;;;;;;8.32;4.70;;;;;;;21.49;59.79;96612.28;5052709;28;20060;-65
2023/07/11 04:00:34;;;;;;;6.40;5.10;;;;;;;21.43;60.00;96616.28;5052828;28;20049;-66
2023/07/11 04:03:01;;;;;;;8.50;5.50;;;;;;;21.33;59.39;96616.16;5052887;28;20056;-66
2023/07/11 04:05:29;;;;;;;6.00;5.40;;;;;;;21.25;60.50;96621.28;5052770;28;20102;-66
2023/07/11 04:07:57;;;;;;;7.85;5.53;;;;;;;21.25;60.92;96619.44;5052939;28;20487;-65
2023/07/11 04:10:24;;;;;;;7.35;5.45;;;;;;;21.24;61.79;96619.56;5052780;28;20061;-66
2023/07/11 04:12:51;;;;;;;14.07;5.90;;;;;;;21.30;61.81;96619.06;5052805;28;20099;-65
2023/07/11 04:15:19;;;;;;;11.68;5.80;;;;;;;21.44;62.07;96617.97;5052801;28;20411;-66
2023/07/11 04:17:46;;;;;;;5.30;4.80;;;;;;;21.84;62.53;96624.50;5052706;28;20103;-67
2023/07/11 04:20:13;;;;;;;9.95;4.97;;;;;;;22.40;62.15;96619.88;5052678;28;20057;-66
2023/07/11 04:22:40;;;;;;;6.68;4.47;;;;;;;22.98;58.61;96617.66;5052647;28;20045;-66
2023/07/11 04:25:08;;;;;;;9.70;5.47;;;;;;;23.49;54.70;96617.69;5052741;28;20514;-66
2023/07/11 04:27:35;;;;;;;8.05;4.30;;;;;;;24.10;51.52;96618.41;5052634;28;20045;-67
2023/07/11 04:30:02;;;;;;;10.23;4.10;;;;;;;24.72;50.77;96622.53;5052564;28;20449;-66
2023/07/11 04:32:31;;;;;;;5.60;4.55;;;;;;;25.32;48.94;96622.31;5052608;28;20049;-67
2023/07/11 04:34:58;;;;;;;7.50;4.85;;;;;;;25.82;44.05;96622.84;5052661;28;20076;-67
2023/07/11 04:37:25;;;;;;;7.95;4.15;;;;;;;26.30;42.75;96615.41;5052509;28;20056;-67
2023/07/11 04:39:52;;;;;;;8.23;4.78;;;;;;;26.70;41.87;96626.56;5052581;28;20380;-67
2023/07/11 04:42:19;;;;;;;5.00;4.47;;;;;;;27.16;44.67;96622.81;5052420;28;20077;-67
2023/07/11 04:44:47;;;;;;;6.38;4.78;;;;;;;27.57;42.68;96630.16;5052434;28;20530;-67
2023/07/11 04:47:14;;;;;;;7.53;3.97;;;;;;;27.98;41.83;96629.41;5052420;28;20049;-67
2023/07/11 04:49:42;;;;;;;4.68;3.95;;;;;;;28.25;39.05;96631.94;5052359;28;20071;-67
2023/07/11 04:52:11;;;;;;;6.07;4.07;;;;;;;28.51;40.32;96626.41;5052382;28;20406;-67
2023/07/11 04:54:38;;;;;;;9.32;4.70;;;;;;;28.87;40.69;96638.59;5054496;28;20041;-67
2023/07/11 04:57:05;;;;;;;5.70;3.85;;;;;;;29.22;40.55;96640.19;5055772;28;20457;-67
2023/07/11 04:59:32;;;;;;;7.85;4.25;;;;;;;29.49;35.49;96635.34;5055948;28;20049;-67
2023/07/11 05:01:59;;;;;;;7.53;4.03;;;;;;;29.76;35.52;96642.16;5055951;28;20088;-67
2023/07/11 05:04:27;;;;;;;6.78;4.10;;;;;;;30.10;37.08;96645.44;5055812;28;20060;-67
2023/07/11 05:06:55;;;;;;;10.70;4.35;;;;;;;30.26;34.88;96646.38;5055777;28;20482;-67
2023/07/11 05:09:23;;;;;;;8.43;4.50;;;;;;;30.49;34.46;96648.22;5055744;28;20122;-67
2023/07/11 05:11:50;;;;;;;6.68;3.88;;;;;;;30.66;34.11;96648.88;5055626;28;20140;-67
2023/07/11 05:14:17;;;;;;;7.22;4.82;;;;;;;30.93;33.52;96651.16;5055635;28;20486;-68
2023/07/11 05:16:44;;;;;;;7.28;4.40;;;;;;;30.88;33.07;96647.16;5055647;28;20132;-68
2023/07/11 05:19:11;;;;;;;4.85;4.35;;;;;;;31.02;32.91;96650.06;5055655;28;20045;-68
2023/07/11 05:21:38;;;;;;;7.45;4.40;;;;;;;31.28;34.77;96651.47;5055421;28;20057;-68
2023/07/11 05:24:08;;;;;;;7.60;4.20;;;;;;;31.50;32.59;96646.13;5055458;28;20057;-68
2023/07/11 05:26:35;;;;;;;9.95;4.38;;;;;;;31.63;32.16;96657.09;5055609;28;20049;-68
2023/07/11 05:29:05;;;;;;;7.75;4.30;;;;;;;31.84;32.44;96654.63;5055397;28;20049;-68
2023/07/11 05:31:32;;;;;;;7.75;4.38;;;;;;;32.08;32.40;96652.63;5055415;28;20049;-68
2023/07/11 05:33:59;;;;;;;7.45;4.20;;;;;;;32.15;31.82;96648.13;5055245;28;20049;-68
2023/07/11 05:36:32;;;;;;;16.95;4.32;;;;;;;32.38;32.14;96647.88;5055250;28;20544;-68
2023/07/11 05:39:00;;;;;;;6.50;4.57;;;;;;;32.60;32.55;96652.47;5055164;28;20564;-68
2023/07/11 05:41:29;;;;;;;7.93;4.45;;;;;;;32.80;30.77;96641.78;5055107;28;20075;-68
2023/07/11 05:43:56;;;;;;;8.77;4.32;;;;;;;33.06;31.42;96653.84;5055062;28;20076;-68
2023/07/11 05:46:23;;;;;;;5.80;4.07;;;;;;;33.09;29.42;96650.75;5055181;28;20446;-68
2023/07/11 05:48:51;;;;;;;8.07;4.43;;;;;;;33.14;30.29;96650.97;5054965;28;20045;-68
2023/07/11 05:51:18;;;;;;;6.07;4.60;;;;;;;33.26;30.34;96648.53;5055010;28;20080;-68
2023/07/11 05:53:48;;;;;;;11.45;4.15;;;;;;;33.49;31.09;96652.78;5054914;28;20135;-68
2023/07/11 05:56:16;;;;;;;10.15;4.60;;;;;;;33.36;30.72;96650.88;5054712;28;20083;-67
2023/07/11 05:58:47;;;;;;;9.95;4.53;;;;;;;33.59;29.90;96646.19;5054780;28;20049;-68
2023/07/11 06:01:16;;;;;;;5.63;4.03;;;;;;;33.54;30.67;96652.19;5054726;28;20132;-67
2023/07/11 06:03:45;;;;;;;5.65;4.25;;;;;;;33.61;30.50;96666.63;5054680;28;20410;-68
2023/07/11 06:06:14;;;;;;;5.05;4.30;;;;;;;33.86;29.80;96651.69;5054720;28;20045;-68
2023/07/11 06:08:42;;;;;;;7.60;4.10;;;;;;;34.09;31.32;96650.47;5054671;28;20069;-68
2023/07/11 06:11:09;;;;;;;9.43;4.15;;;;;;;34.23;30.87;96648.66;5054645;28;20056;-68
2023/07/11 06:13:38;;;;;;;13.63;4.15;;;;;;;34.23;29.68;96654.09;5054643;28;20076;-68
2023/07/11 06:16:12;;;;;;;6.68;4.13;;;;;;;33.96;30.13;96652.16;5054594;28;20053;-68
2023/07/11 06:18:40;;;;;;;6.18;4.20;;;;;;;34.19;31.83;96655.53;5054520;28;20462;-68
2023/07/11 06:21:09;;;;;;;8.43;4.30;;;;;;;34.18;30.50;96648.44;5054751;28;20052;-68
2023/07/11 06:23:36;;;;;;;8.57;4.00;;;;;;;34.20;27.76;96647.19;5054283;28;20052;-67
2023/07/11 06:26:04;;;;;;;6.97;4.20;;;;;;;34.20;29.19;96647.19;5054245;28;20052;-68
2023/07/11 06:28:31;;;;;;;6.68;3.92;;;;;;;34.38;29.38;96648.47;5054200;28;20557;-68
2023/07/11 06:31:00;;;;;;;8.88;4.47;;;;;;;34.60;29.18;96645.53;5054224;28;20190;-68
2023/07/11 06:33:29;;;;;;;7.72;4.07;;;;;;;34.53;28.66;96649.06;5054245;28;20053;-67
2023/07/11 06:35:57;;;;;;;4.35;3.92;;;;;;;34.33;29.38;96653.66;5054134;28;20048;-68
2023/07/11 06:38:24;;;;;;;6.90;4.05;;;;;;;34.33;28.22;96650.94;5054098;28;20055;-68
2023/07/11 06:40:52;;;;;;;19.50;5.50;;;;;;;34.38;29.21;96648.47;5054033;28;20049;-68
2023/07/11 06:43:21;;;;;;;26.95;6.43;;;;;;;34.37;28.70;96655.75;5054001;28;20057;-68
2023/07/11 06:45:49;;;;;;;5.25;4.75;;;;;;;34.31;28.86;96653.88;5053877;28;20052;-68
2023/07/11 06:48:18;;;;;;;7.72;4.25;;;;;;;34.36;29.26;96655.97;5053846;28;20048;-68
2023/07/11 06:50:52;;;;;;;15.55;5.47;;;;;;;34.45;29.50;96651.16;5053745;28;20052;-68
2023/07/11 06:53:19;;;;;;;34.67;7.32;;;;;;;34.62;28.28;96655.16;5053773;28;20073;-68
2023/07/11 06:55:47;;;;;;;10.68;4.20;;;;;;;34.85;28.21;96653.06;5053673;28;20045;-68
2023/07/11 06:58:15;;;;;;;7.40;3.67;;;;;;;34.73;27.84;96650.97;5053749;28;20048;-68
2023/07/11 07:00:43;;;;;;;8.48;4.20;;;;;;;34.49;29.45;96650.53;5053701;28;20045;-68
2023/07/11 07:03:12;;;;;;;6.95;4.32;;;;;;;34.58;28.23;96647.63;5053599;28;20099;-68
2023/07/11 07:05:39;;;;;;;8.70;4.65;;;;;;;34.71;28.26;96650.38;5053516;28;20049;-68
2023/07/11 07:08:08;;;;;;;6.47;4.85;;;;;;;34.76;28.32;96650.56;5053487;28;20380;-68
2023/07/11 07:10:36;;;;;;;8.80;4.68;;;;;;;34.78;28.80;96643.03;5053365;28;20045;-68
2023/07/11 07:13:03;;;;;;;7.47;4.15;;;;;;;34.91;29.22;96644.03;5053413;28;20502;-68
2023/07/11 07:15:30;;;;;;;12.50;4.53;;;;;;;35.13;27.55;96639.22;5053384;28;20048;-68
2023/07/11 07:17:58;;;;;;;11.68;4.22;;;;;;;35.10;28.23;96655.09;5052966;28;20438;-68
2023/07/11 07:20:25;;;;;;;8.65;4.10;;;;;;;35.29;28.07;96654.22;5053322;28;20517;-68
2023/07/11 07:22:52;;;;;;;8.77;4.05;;;;;;;35.59;27.21;96641.13;5053180;28;20080;-68
2023/07/11 07:25:21;;;;;;;7.10;4.65;;;;;;;35.58;26.60;96653.06;5053336;28;20045;-68
2023/07/11 07:27:48;;;;;;;9.25;4.18;;;;;;;35.63;27.60;96648.66;5053367;28;20124;-68
2023/07/11 07:30:15;;;;;;;5.85;4.10;;;;;;;35.59;25.15;96652.00;5053237;28;20055;-68
2023/07/11 07:32:43;;;;;;;13.38;5.05;;;;;;;35.28;27.44;96644.38;5053091;28;20059;-68
2023/07/11 07:35:10;;;;;;;5.55;3.97;;;;;;;35.30;27.46;96646.91;5053166;28;20127;-68
2023/07/11 07:37:37;;;;;;;10.65;4.30;;;;;;;35.64;26.91;96650.31;5053183;28;20047;-68
2023/07/11 07:40:06;;;;;;;5.93;4.32;;;;;;;35.61;27.92;96660.78;5053067;28;20045;-68
2023/07/11 07:42:34;;;;;;;8.52;4.35;;;;;;;35.70;26.18;96647.81;5053143;28;20048;-68
2023/07/11 07:45:02;;;;;;;10.45;4.05;;;;;;;35.78;25.87;96659.28;5053037;28;20044;-68
2023/07/11 07:47:29;;;;;;;8.38;4.18;;;;;;;35.98;27.39;96655.59;5053012;28;20453;-68
2023/07/11 07:49:57;;;;;;;7.25;4.45;;;;;;;36.20;26.31;96652.56;5053016;28;20057;-68
2023/07/11 07:52:25;;;;;;;6.70;4.53;;;;;;;36.32;26.27;96646.41;5052748;28;20051;-68
2023/07/11 07:54:52;;;;;;;5.43;3.92;;;;;;;36.39;27.53;96658.88;5052934;28;20132;-68
2023/07/11 07:57:22;;;;;;;5.13;4.40;;;;;;;36.33;29.72;96653.53;5052710;28;20193;-68
2023/07/11 07:59:50;;;;;;;6.97;4.13;;;;;;;35.85;25.38;96645.66;5052912;28;20518;-68
2023/07/11 08:02:18;;;;;;;5.60;3.53;;;;;;;35.87;26.88;96639.97;5053043;28;20049;-68
2023/07/11 08:04:47;;;;;;;15.00;4.38;;;;;;;36.01;26.11;96633.41;5052818;28;20044;-68
2023/07/11 08:07:14;;;;;;;8.43;4.72;;;;;;;35.61;26.99;96623.56;5052784;28;20045;-68
2023/07/11 08:09:41;;;;;;;12.43;4.28;;;;;;;35.57;27.09;96629.66;5052814;28;20068;-68
2023/07/11 08:12:10;;;;;;;6.60;4.18;;;;;;;35.73;27.01;96631.06;5052775;28;20080;-68
2023/07/11 08:14:38;;;;;;;8.25;4.07;;;;;;;35.76;27.34;96628.72;5052756;28;20056;-68
2023/07/11 08:17:08;;;;;;;9.45;4.50;;;;;;;35.95;25.91;96628.84;5052785;28;20063;-68
2023/07/11 08:19:35;;;;;;;;;;;;;;;36.24;26.23;96628.47;5053075;28;20076;-68
2023/07/11 08:22:02;;;;;;;6.13;4.07;;;;;;;36.36;26.87;96634.84;5052605;28;19960;-68
2023/07/11 08:24:29;;;;;;;7.50;4.30;;;;;;;36.23;24.61;96630.34;5052687;28;20049;-68
2023/07/11 08:26:57;;;;;;;9.48;4.32;;;;;;;36.05;25.05;96631.06;5052539;28;20055;-68
2023/07/11 08:29:24;;;;;;;6.60;4.38;;;;;;;36.09;25.67;96631.47;5054596;28;20102;-68
2023/07/11 08:31:52;;;;;;;6.05;4.18;;;;;;;36.13;26.20;96640.84;5056500;28;20053;-68
2023/07/11 08:34:20;;;;;;;5.43;4.20;;;;;;;35.98;25.81;96633.00;5056409;28;20099;-68
2023/07/11 08:36:48;;;;;;;9.00;3.75;;;;;;;35.33;26.04;96627.44;5056373;28;20072;-68
2023/07/11 08:39:15;;;;;;;9.00;3.97;;;;;;;35.20;26.70;96628.34;5056428;28;20413;-68
2023/07/11 08:41:46;;;;;;;4.88;3.95;;;;;;;35.15;26.36;96634.38;5056301;28;20044;-68
2023/07/11 08:44:17;;;;;;;6.32;4.03;;;;;;;35.15;26.00;96623.50;5056175;28;20048;-68
2023/07/11 08:46:51;;;;;;;7.85;3.95;;;;;;;35.34;28.65;96625.56;5056105;28;20048;-68
2023/07/11 08:49:27;;;;;;;5.15;3.92;;;;;;;35.06;27.23;96626.69;5056136;28;20107;-68
2023/07/11 08:51:58;;;;;;;10.20;4.20;;;;;;;35.01;27.48;96627.31;5056112;28;20111;-68
2023/07/11 08:54:31;;;;;;;8.30;4.03;;;;;;;34.94;26.42;96623.78;5056103;28;20045;-68
2023/07/11 08:57:00;;;;;;;8.30;5.38;;;;;;;34.74;29.08;96630.09;5055869;28;20080;-68
2023/07/11 08:59:37;;;;;;;8.23;4.43;;;;;;;34.71;28.33;96616.94;5056238;28;20055;-68
2023/07/11 09:02:25;;;;;;;9.70;4.03;;;;;;;34.66;28.00;96615.69;5055940;28;20419;-67
2023/07/11 09:04:54;;;;;;;4.95;4.45;;;;;;;34.79;28.15;96617.53;5055903;28;20045;-68
2023/07/11 09:07:33;;;;;;;12.57;4.43;;;;;;;34.87;27.81;96613.78;5055774;28;20053;-68
2023/07/11 09:10:00;;;;;;;10.02;4.40;;;;;;;35.01;27.24;96624.59;5055808;28;20405;-68
2023/07/11 09:12:40;;;;;;;5.47;4.00;;;;;;;34.86;27.36;96619.41;5055760;28;20079;-68
2023/07/11 09:15:17;;;;;;;7.40;3.88;;;;;;;34.59;27.99;96614.00;5055718;28;20053;-68
2023/07/11 09:17:59;;;;;;;11.57;4.97;;;;;;;34.39;27.86;96614.84;5055653;28;20502;-68
2023/07/11 09:20:41;;;;;;;5.88;4.25;;;;;;;34.42;28.87;96609.00;5055848;28;20091;-68
2023/07/11 09:23:21;;;;;;;7.75;4.68;;;;;;;34.56;29.37;96612.53;5055496;28;20053;-68
2023/07/11 09:25:48;;;;;;;;;;;;;;;34.73;27.95;96601.28;5055849;28;20080;-68
2023/07/11 09:28:22;;;;;;;12.57;4.70;;;;;;;34.76;30.11;96609.00;5055405;28;19921;-67
2023/07/11 09:30:53;;;;;;;9.80;4.63;;;;;;;34.97;29.91;96599.75;5055467;28;20414;-68
2023/07/11 09:33:23;;;;;;;7.47;4.30;;;;;;;35.03;28.64;96608.91;5055388;28;20049;-68
2023/07/11 09:35:53;;;;;;;5.65;4.28;;;;;;;34.82;27.62;96604.59;5055208;28;20063;-68
2023/07/11 09:38:27;;;;;;;6.80;4.65;;;;;;;34.83;27.38;96603.53;5055259;28;20045;-68
2023/07/11 09:41:02;;;;;;;6.25;4.63;;;;;;;34.87;29.10;96599.34;5054941;28;20045;-68
2023/07/11 09:43:29;;;;;;;8.82;4.57;;;;;;;34.98;28.13;96606.84;5055327;28;20075;-68
2023/07/11 09:45:56;;;;;;;9.82;5.07;;;;;;;34.61;29.57;96615.44;5055204;28;20494;-67
2023/07/11 09:48:27;;;;;;;8.88;4.03;;;;;;;34.89;29.36;96613.56;5055019;28;20045;-68
2023/07/11 09:51:24;;;;;;;9.88;5.45;;;;;;;35.12;28.35;96604.09;5055041;28;20084;-68
2023/07/11 09:53:54;;;;;;;4.30;3.88;;;;;;;35.27;29.46;96621.00;5054991;28;20052;-68
2023/07/11 09:56:22;;;;;;;9.45;4.20;;;;;;;35.37;28.12;96603.41;5054678;28;20402;-68
2023/07/11 09:58:51;;;;;;;8.43;4.70;;;;;;;35.31;28.12;96602.38;5054803;28;20041;-68
2023/07/11 10:01:23;;;;;;;7.93;4.15;;;;;;;35.10;29.57;96600.75;5054900;28;20048;-67
2023/07/11 10:03:55;;;;;;;6.18;4.25;;;;;;;35.24;28.99;96615.16;5054821;28;20053;-67
2023/07/11 10:06:31;;;;;;;7.82;4.53;;;;;;;35.23;28.78;96603.44;5054746;28;20056;-67
2023/07/11 10:09:06;;;;;;;9.68;4.72;;;;;;;35.16;29.08;96598.00;5054715;28;20406;-68
2023/07/11 10:11:34;;;;;;;10.35;4.32;;;;;;;35.16;31.10;96608.06;5054574;28;20079;-68
2023/07/11 10:14:02;;;;;;;8.80;4.30;;;;;;;35.18;29.01;96595.09;5054519;28;20041;-68
2023/07/11 10:16:33;;;;;;;6.95;4.60;;;;;;;35.09;28.47;96590.94;5054526;28;20052;-68
2023/07/11 10:19:01;;;;;;;5.30;4.15;;;;;;;35.14;28.23;96582.97;5054535;28;20605;-68
2023/07/11 10:21:32;;;;;;;14.10;4.57;;;;;;;35.19;29.09;96583.19;5054374;28;20057;-68
2023/07/11 10:23:59;;;;;;;9.35;4.70;;;;;;;35.28;27.52;96586.50;5054349;28;20052;-68
2023/07/11 10:26:30;;;;;;;8.02;4.40;;;;;;;35.27;27.13;96590.25;5054330;28;20052;-68
2023/07/11 10:29:02;;;;;;;5.78;4.95;;;;;;;35.22;28.39;96585.50;5054349;28;20118;-68
2023/07/11 10:31:33;;;;;;;9.05;4.60;;;;;;;35.26;28.46;96591.31;5054157;28;20564;-68
2023/07/11 10:34:07;;;;;;;11.10;4.78;;;;;;;34.93;27.02;96579.50;5054143;28;20044;-68
2023/07/11 10:36:46;;;;;;;5.53;4.40;;;;;;;35.03;28.03;96581.75;5054155;28;20540;-68
2023/07/11 10:39:18;;;;;;;10.02;4.85;;;;;;;35.03;27.59;96584.47;5054244;28;20052;-68
2023/07/11 10:41:51;;;;;;;6.93;4.60;;;;;;;35.18;27.81;96584.22;5053982;28;20127;-68
2023/07/11 10:44:23;;;;;;;9.60;4.43;;;;;;;35.28;27.01;96576.44;5053987;28;20091;-68
2023/07/11 10:46:53;;;;;;;5.95;4.25;;;;;;;35.28;27.56;96568.28;5053914;28;20041;-68
2023/07/11 10:49:26;;;;;;;8.38;4.82;;;;;;;35.35;27.02;96573.72;5053847;28;20494;-68
2023/07/11 10:51:58;;;;;;;5.10;4.60;;;;;;;35.49;26.56;96568.22;5053134;28;20091;-68
2023/07/11 10:54:36;;;;;;;6.40;4.40;;;;;;;35.64;26.90;96563.28;5053837;28;20128;-68
2023/07/11 10:57:13;;;;;;;6.00;4.82;;;;;;;35.60;26.35;96563.97;5053477;28;20049;-68
2023/07/11 10:59:40;;;;;;;8.30;4.65;;;;;;;35.47;25.97;96570.31;5053847;28;20525;-68
2023/07/11 11:02:16;;;;;;;6.03;4.47;;;;;;;35.18;26.92;96557.06;5053758;28;20136;-68
2023/07/11 11:05:00;;;;;;;8.45;3.90;;;;;;;34.99;27.06;96556.06;5053648;28;20110;-68
2023/07/11 11:07:35;;;;;;;9.07;4.88;;;;;;;34.65;28.84;96561.56;5053577;28;20049;-68
2023/07/11 11:10:12;;;;;;;9.93;4.53;;;;;;;34.69;31.59;96553.84;5053521;28;20059;-68
2023/07/11 11:12:44;;;;;;;8.65;4.55;;;;;;;34.85;29.66;96556.09;5053491;28;20044;-68
2023/07/11 11:15:42;;;;;;;14.00;5.18;;;;;;;34.85;29.22;96549.88;5053511;28;20080;-68
2023/07/11 11:18:29;;;;;;;8.65;4.68;;;;;;;34.65;29.88;96564.28;5045343;28;20075;-68
2023/07/11 11:21:06;;;;;;;7.30;4.60;;;;;;;34.40;27.39;96556.81;5053380;28;20055;-68
2023/07/11 11:23:50;;;;;;;8.20;4.32;;;;;;;34.35;27.52;96551.19;5053251;28;20044;-67
2023/07/11 11:26:33;;;;;;;10.50;5.20;;;;;;;34.38;29.52;96550.75;5053212;28;20098;-68
2023/07/11 11:29:10;;;;;;;8.90;5.03;;;;;;;34.13;28.40;96549.50;5053277;28;20045;-68
2023/07/11 11:31:46;;;;;;;8.60;4.63;;;;;;;34.02;28.87;96547.41;5053093;28;20076;-68
2023/07/11 11:34:39;;;;;;;7.70;4.88;;;;;;;34.06;29.07;96553.22;5053387;28;20451;-69
2023/07/11 11:37:20;;;;;;;5.63;4.70;;;;;;;33.96;28.06;96545.53;5053152;28;20045;-68
2023/07/11 11:39:58;;;;;;;5.90;5.18;;;;;;;33.83;28.33;96540.94;5052993;28;20127;-68
2023/07/11 11:42:30;;;;;;;8.93;5.80;;;;;;;33.99;27.32;96540.53;5053044;28;20128;-68